sensor_id;sensor_type;location;lat;lon;timestamp;pressure;altitude;pressure_sealevel;temperature;humidity
44481;BME280;30184;42.018;23.670;2023-05-23T00:00:27;91382.66;;;10.64;84.58
44481;BME280;30184;42.018;23.670;2023-05-23T00:02:58;91388.72;;;10.55;85.23
44481;BME280;30184;42.018;23.670;2023-05-23T00:05:28;91353.19;;;10.24;85.18
44481;BME280;30184;42.018;23.670;2023-05-23T00:07:57;91415.59;;;10.37;85.97
44481;BME280;30184;42.018;23.670;2023-05-23T00:10:27;91396.63;;;10.37;85.94
44481;BME280;30184;42.018;23.670;2023-05-23T00:12:56;91278.91;;;9.67;85.83
44481;BME280;30184;42.018;23.670;2023-05-23T00:15:25;91381.84;;;10.25;86.15
44481;BME280;30184;42.018;23.670;2023-05-23T00:17:54;91381.16;;;10.21;86.05
44481;BME280;30184;42.018;23.670;2023-05-23T00:20:25;91381.28;;;10.18;86.01
44481;BME280;30184;42.018;23.670;2023-05-23T00:22:54;91388.50;;;10.08;86.01
44481;BME280;30184;42.018;23.670;2023-05-23T00:25:25;91382.81;;;10.02;86.43
44481;BME280;30184;42.018;23.670;2023-05-23T00:28:01;91272.47;;;9.20;86.34
44481;BME280;30184;42.018;23.670;2023-05-23T00:30:31;91405.91;;;9.94;86.98
44481;BME280;30184;42.018;23.670;2023-05-23T00:33:01;91393.97;;;9.92;87.07
44481;BME280;30184;42.018;23.670;2023-05-23T00:35:32;91382.13;;;9.86;87.04
44481;BME280;30184;42.018;23.670;2023-05-23T00:38:01;91396.97;;;9.81;86.83
44481;BME280;30184;42.018;23.670;2023-05-23T00:40:30;91398.19;;;9.64;87.01
44481;BME280;30184;42.018;23.670;2023-05-23T00:43:00;91397.16;;;9.74;86.93
44481;BME280;30184;42.018;23.670;2023-05-23T00:45:29;91398.44;;;9.69;87.31
44481;BME280;30184;42.018;23.670;2023-05-23T00:47:58;91400.91;;;9.64;87.20
44481;BME280;30184;42.018;23.670;2023-05-23T00:50:28;91396.00;;;9.59;87.50
44481;BME280;30184;42.018;23.670;2023-05-23T00:53:00;91394.91;;;9.56;87.66
44481;BME280;30184;42.018;23.670;2023-05-23T00:55:30;91386.31;;;9.45;88.12
44481;BME280;30184;42.018;23.670;2023-05-23T00:57:59;91369.25;;;9.32;88.20
44481;BME280;30184;42.018;23.670;2023-05-23T01:00:29;91394.75;;;9.47;88.05
44481;BME280;30184;42.018;23.670;2023-05-23T01:02:58;91396.06;;;9.43;88.35
44481;BME280;30184;42.018;23.670;2023-05-23T01:05:28;91392.09;;;9.31;88.33
44481;BME280;30184;42.018;23.670;2023-05-23T01:07:57;91358.72;;;9.05;88.29
44481;BME280;30184;42.018;23.670;2023-05-23T01:10:31;91409.94;;;9.28;88.36
44481;BME280;30184;42.018;23.670;2023-05-23T01:13:23;91402.69;;;9.25;88.57
44481;BME280;30184;42.018;23.670;2023-05-23T01:16:00;91400.06;;;9.22;88.82
44481;BME280;30184;42.018;23.670;2023-05-23T01:18:35;91394.91;;;9.11;88.82
44481;BME280;30184;42.018;23.670;2023-05-23T01:21:11;91394.41;;;9.16;89.00
44481;BME280;30184;42.018;23.670;2023-05-23T01:24:15;91397.00;;;9.04;89.41
44481;BME280;30184;42.018;23.670;2023-05-23T01:27:00;91416.03;;;9.00;89.44
44481;BME280;30184;42.018;23.670;2023-05-23T01:29:37;91397.59;;;8.95;89.80
44481;BME280;30184;42.018;23.670;2023-05-23T01:32:11;91398.78;;;8.94;89.57
44481;BME280;30184;42.018;23.670;2023-05-23T01:34:42;91398.09;;;8.90;89.64
44481;BME280;30184;42.018;23.670;2023-05-23T01:37:13;91396.25;;;8.87;89.82
44481;BME280;30184;42.018;23.670;2023-05-23T01:39:45;91409.44;;;8.85;90.18
44481;BME280;30184;42.018;23.670;2023-05-23T01:42:15;91389.41;;;8.82;90.06
44481;BME280;30184;42.018;23.670;2023-05-23T01:44:45;91123.31;;;6.98;89.94
44481;BME280;30184;42.018;23.670;2023-05-23T01:47:15;91345.41;;;8.46;89.80
44481;BME280;30184;42.018;23.670;2023-05-23T01:49:46;91410.50;;;8.71;90.32
44481;BME280;30184;42.018;23.670;2023-05-23T01:52:16;91392.78;;;8.70;90.10
44481;BME280;30184;42.018;23.670;2023-05-23T01:54:45;91390.97;;;8.64;90.21
44481;BME280;30184;42.018;23.670;2023-05-23T01:57:16;91386.50;;;8.57;90.33
44481;BME280;30184;42.018;23.670;2023-05-23T01:59:47;91381.50;;;8.55;90.62
44481;BME280;30184;42.018;23.670;2023-05-23T02:02:16;91327.28;;;7.91;90.75
44481;BME280;30184;42.018;23.670;2023-05-23T02:04:48;91394.03;;;8.49;91.15
44481;BME280;30184;42.018;23.670;2023-05-23T02:07:18;91387.84;;;8.49;91.33
44481;BME280;30184;42.018;23.670;2023-05-23T02:09:49;91118.16;;;6.48;91.14
44481;BME280;30184;42.018;23.670;2023-05-23T02:12:19;91389.59;;;8.39;91.64
44481;BME280;30184;42.018;23.670;2023-05-23T02:14:49;91395.06;;;8.36;91.93
44481;BME280;30184;42.018;23.670;2023-05-23T02:17:19;91394.44;;;8.28;92.45
44481;BME280;30184;42.018;23.670;2023-05-23T02:19:49;91314.91;;;7.73;92.16
44481;BME280;30184;42.018;23.670;2023-05-23T02:22:22;91392.91;;;8.27;92.20
44481;BME280;30184;42.018;23.670;2023-05-23T02:24:51;91393.06;;;8.20;92.79
44481;BME280;30184;42.018;23.670;2023-05-23T02:27:21;91389.19;;;8.21;92.67
44481;BME280;30184;42.018;23.670;2023-05-23T02:29:51;91391.19;;;8.17;92.29
44481;BME280;30184;42.018;23.670;2023-05-23T02:32:21;91390.94;;;8.11;92.24
44481;BME280;30184;42.018;23.670;2023-05-23T02:34:50;91392.53;;;8.09;92.19
44481;BME280;30184;42.018;23.670;2023-05-23T02:37:20;91390.25;;;8.07;92.17
44481;BME280;30184;42.018;23.670;2023-05-23T02:39:49;91386.78;;;8.07;92.21
44481;BME280;30184;42.018;23.670;2023-05-23T02:42:18;91391.84;;;8.05;92.47
44481;BME280;30184;42.018;23.670;2023-05-23T02:44:47;91383.41;;;8.03;92.56
44481;BME280;30184;42.018;23.670;2023-05-23T02:47:20;91389.63;;;8.00;92.67
44481;BME280;30184;42.018;23.670;2023-05-23T02:49:49;91380.09;;;7.95;92.72
44481;BME280;30184;42.018;23.670;2023-05-23T02:52:19;91389.38;;;7.94;92.70
44481;BME280;30184;42.018;23.670;2023-05-23T02:54:48;91442.91;;;7.79;93.00
44481;BME280;30184;42.018;23.670;2023-05-23T02:57:17;91379.03;;;7.89;92.82
44481;BME280;30184;42.018;23.670;2023-05-23T02:59:47;91383.00;;;7.84;92.16
44481;BME280;30184;42.018;23.670;2023-05-23T03:02:16;91362.56;;;7.64;92.15
44481;BME280;30184;42.018;23.670;2023-05-23T03:04:46;91379.31;;;7.75;92.37
44481;BME280;30184;42.018;23.670;2023-05-23T03:07:16;91382.44;;;7.73;92.80
44481;BME280;30184;42.018;23.670;2023-05-23T03:09:51;91384.09;;;7.67;93.43
44481;BME280;30184;42.018;23.670;2023-05-23T03:12:20;91385.97;;;7.70;93.35
44481;BME280;30184;42.018;23.670;2023-05-23T03:14:49;91379.03;;;7.69;93.46
44481;BME280;30184;42.018;23.670;2023-05-23T03:17:18;91365.75;;;7.39;93.63
44481;BME280;30184;42.018;23.670;2023-05-23T03:19:49;91380.22;;;7.68;93.72
44481;BME280;30184;42.018;23.670;2023-05-23T03:22:19;91409.59;;;7.66;93.64
44481;BME280;30184;42.018;23.670;2023-05-23T03:24:48;91332.72;;;7.31;93.71
44481;BME280;30184;42.018;23.670;2023-05-23T03:27:17;91387.97;;;7.66;93.45
44481;BME280;30184;42.018;23.670;2023-05-23T03:29:46;91383.25;;;7.70;93.52
44481;BME280;30184;42.018;23.670;2023-05-23T03:32:15;91381.00;;;7.69;93.47
44481;BME280;30184;42.018;23.670;2023-05-23T03:34:45;91387.50;;;7.71;93.31
44481;BME280;30184;42.018;23.670;2023-05-23T03:37:15;91385.50;;;7.75;93.10
44481;BME280;30184;42.018;23.670;2023-05-23T03:39:44;91389.31;;;7.78;93.22
44481;BME280;30184;42.018;23.670;2023-05-23T03:42:14;91379.94;;;7.82;92.95
44481;BME280;30184;42.018;23.670;2023-05-23T03:44:43;91395.75;;;7.84;92.85
44481;BME280;30184;42.018;23.670;2023-05-23T03:47:13;91389.84;;;7.89;92.65
44481;BME280;30184;42.018;23.670;2023-05-23T03:49:44;91410.84;;;7.81;92.65
44481;BME280;30184;42.018;23.670;2023-05-23T03:52:15;91376.56;;;7.78;92.64
44481;BME280;30184;42.018;23.670;2023-05-23T03:54:45;91374.69;;;7.75;92.81
44481;BME280;30184;42.018;23.670;2023-05-23T03:57:15;91365.53;;;7.69;92.55
44481;BME280;30184;42.018;23.670;2023-05-23T03:59:44;91369.97;;;7.79;91.63
44481;BME280;30184;42.018;23.670;2023-05-23T04:02:14;91359.81;;;7.67;91.39
44481;BME280;30184;42.018;23.670;2023-05-23T04:04:43;91335.22;;;7.62;91.13
44481;BME280;30184;42.018;23.670;2023-05-23T04:07:15;91390.47;;;7.97;91.72
44481;BME280;30184;42.018;23.670;2023-05-23T04:09:45;91346.00;;;7.81;91.76
44481;BME280;30184;42.018;23.670;2023-05-23T04:12:17;91366.63;;;7.92;91.91
44481;BME280;30184;42.018;23.670;2023-05-23T04:14:46;91390.59;;;8.09;91.85
44481;BME280;30184;42.018;23.670;2023-05-23T04:17:17;91363.84;;;8.15;91.38
44481;BME280;30184;42.018;23.670;2023-05-23T04:19:46;91373.75;;;8.57;91.28
44481;BME280;30184;42.018;23.670;2023-05-23T04:22:17;91371.22;;;9.15;89.47
44481;BME280;30184;42.018;23.670;2023-05-23T04:24:47;91374.44;;;9.55;85.83
44481;BME280;30184;42.018;23.670;2023-05-23T04:27:17;91360.94;;;9.97;83.78
44481;BME280;30184;42.018;23.670;2023-05-23T04:29:46;91363.19;;;10.40;81.35
44481;BME280;30184;42.018;23.670;2023-05-23T04:32:15;91353.84;;;10.66;80.85
44481;BME280;30184;42.018;23.670;2023-05-23T04:34:46;91363.94;;;11.04;78.25
44481;BME280;30184;42.018;23.670;2023-05-23T04:37:17;91355.84;;;11.38;77.12
44481;BME280;30184;42.018;23.670;2023-05-23T04:39:50;91359.75;;;11.37;76.21
44481;BME280;30184;42.018;23.670;2023-05-23T04:42:41;91354.09;;;12.01;75.12
44481;BME280;30184;42.018;23.670;2023-05-23T04:45:22;91349.84;;;12.21;73.31
44481;BME280;30184;42.018;23.670;2023-05-23T04:48:09;91351.00;;;12.42;72.72
44481;BME280;30184;42.018;23.670;2023-05-23T04:50:44;91351.00;;;12.73;72.04
44481;BME280;30184;42.018;23.670;2023-05-23T04:53:16;91350.94;;;12.95;70.98
44481;BME280;30184;42.018;23.670;2023-05-23T04:55:45;91346.53;;;12.88;70.37
44481;BME280;30184;42.018;23.670;2023-05-23T04:58:17;91351.19;;;13.19;69.87
44481;BME280;30184;42.018;23.670;2023-05-23T05:00:47;91352.28;;;13.30;69.43
44481;BME280;30184;42.018;23.670;2023-05-23T05:03:17;91343.69;;;13.41;68.55
44481;BME280;30184;42.018;23.670;2023-05-23T05:05:47;91345.81;;;13.64;68.32
44481;BME280;30184;42.018;23.670;2023-05-23T05:08:18;91342.31;;;13.91;68.34
44481;BME280;30184;42.018;23.670;2023-05-23T05:10:47;91332.78;;;14.14;67.59
44481;BME280;30184;42.018;23.670;2023-05-23T05:13:19;91349.59;;;14.40;67.11
44481;BME280;30184;42.018;23.670;2023-05-23T05:15:50;91341.56;;;14.45;67.01
44481;BME280;30184;42.018;23.670;2023-05-23T05:18:21;91342.28;;;14.37;66.79
44481;BME280;30184;42.018;23.670;2023-05-23T05:20:50;91351.97;;;14.38;67.00
44481;BME280;30184;42.018;23.670;2023-05-23T05:23:24;91352.00;;;14.47;66.39
44481;BME280;30184;42.018;23.670;2023-05-23T05:25:56;91343.91;;;14.71;65.33
44481;BME280;30184;42.018;23.670;2023-05-23T05:28:25;91349.16;;;14.83;65.58
44481;BME280;30184;42.018;23.670;2023-05-23T05:30:54;91342.66;;;14.81;64.82
44481;BME280;30184;42.018;23.670;2023-05-23T05:33:23;91345.97;;;14.85;65.72
44481;BME280;30184;42.018;23.670;2023-05-23T05:36:06;91341.56;;;14.87;65.79
44481;BME280;30184;42.018;23.670;2023-05-23T05:38:37;91429.59;;;14.91;64.39
44481;BME280;30184;42.018;23.670;2023-05-23T05:41:06;91352.56;;;15.02;64.25
44481;BME280;30184;42.018;23.670;2023-05-23T05:43:39;91334.97;;;15.03;64.80
44481;BME280;30184;42.018;23.670;2023-05-23T05:46:09;91336.63;;;15.10;64.74
44481;BME280;30184;42.018;23.670;2023-05-23T05:48:39;91342.31;;;15.21;64.79
44481;BME280;30184;42.018;23.670;2023-05-23T05:51:11;91168.50;;;13.92;64.44
44481;BME280;30184;42.018;23.670;2023-05-23T05:53:43;91320.84;;;15.05;62.04
44481;BME280;30184;42.018;23.670;2023-05-23T05:56:13;91333.09;;;15.18;62.87
44481;BME280;30184;42.018;23.670;2023-05-23T05:58:42;91334.09;;;15.21;62.05
44481;BME280;30184;42.018;23.670;2023-05-23T06:01:14;91336.34;;;15.31;60.70
44481;BME280;30184;42.018;23.670;2023-05-23T06:03:43;91330.25;;;15.37;61.84
44481;BME280;30184;42.018;23.670;2023-05-23T06:06:12;91336.13;;;15.44;62.77
44481;BME280;30184;42.018;23.670;2023-05-23T06:08:43;91330.91;;;15.55;59.92
44481;BME280;30184;42.018;23.670;2023-05-23T06:11:16;91312.56;;;15.71;58.69
44481;BME280;30184;42.018;23.670;2023-05-23T06:13:45;91303.03;;;15.66;56.83
44481;BME280;30184;42.018;23.670;2023-05-23T06:16:14;91314.00;;;15.81;56.29
44481;BME280;30184;42.018;23.670;2023-05-23T06:18:44;91307.03;;;15.94;57.89
44481;BME280;30184;42.018;23.670;2023-05-23T06:21:14;91273.06;;;15.86;56.46
44481;BME280;30184;42.018;23.670;2023-05-23T06:23:50;91330.66;;;16.07;55.77
44481;BME280;30184;42.018;23.670;2023-05-23T06:26:19;91295.13;;;16.21;56.92
44481;BME280;30184;42.018;23.670;2023-05-23T06:28:48;91290.31;;;16.31;56.54
44481;BME280;30184;42.018;23.670;2023-05-23T06:31:17;91298.53;;;16.31;56.00
44481;BME280;30184;42.018;23.670;2023-05-23T06:33:47;91275.78;;;16.39;55.09
44481;BME280;30184;42.018;23.670;2023-05-23T06:36:17;91281.63;;;16.62;56.93
44481;BME280;30184;42.018;23.670;2023-05-23T06:38:48;91282.75;;;16.70;54.39
44481;BME280;30184;42.018;23.670;2023-05-23T06:41:18;91282.56;;;16.73;55.72
44481;BME280;30184;42.018;23.670;2023-05-23T06:43:47;91282.53;;;16.88;54.18
44481;BME280;30184;42.018;23.670;2023-05-23T06:46:25;91236.09;;;16.64;53.22
44481;BME280;30184;42.018;23.670;2023-05-23T06:48:54;91280.19;;;17.16;54.62
44481;BME280;30184;42.018;23.670;2023-05-23T06:51:29;91277.75;;;17.38;54.46
44481;BME280;30184;42.018;23.670;2023-05-23T06:54:00;91268.50;;;17.56;46.56
44481;BME280;30184;42.018;23.670;2023-05-23T06:56:31;91252.97;;;17.68;46.56
44481;BME280;30184;42.018;23.670;2023-05-23T06:59:00;91264.75;;;17.94;43.39
44481;BME280;30184;42.018;23.670;2023-05-23T07:01:29;91265.66;;;18.11;40.95
44481;BME280;30184;42.018;23.670;2023-05-23T07:03:59;91248.44;;;18.11;41.54
44481;BME280;30184;42.018;23.670;2023-05-23T07:06:29;91182.09;;;17.92;41.59
44481;BME280;30184;42.018;23.670;2023-05-23T07:09:00;91252.06;;;18.54;39.97
44481;BME280;30184;42.018;23.670;2023-05-23T07:11:32;91226.03;;;18.44;40.44
44481;BME280;30184;42.018;23.670;2023-05-23T07:14:02;91242.94;;;18.62;39.75
44481;BME280;30184;42.018;23.670;2023-05-23T07:16:37;91242.78;;;18.72;40.49
44481;BME280;30184;42.018;23.670;2023-05-23T07:19:07;91240.91;;;18.89;39.74
44481;BME280;30184;42.018;23.670;2023-05-23T07:21:43;91238.41;;;18.91;39.74
44481;BME280;30184;42.018;23.670;2023-05-23T07:24:15;91239.00;;;19.06;39.97
44481;BME280;30184;42.018;23.670;2023-05-23T07:26:46;91241.19;;;18.96;38.61
44481;BME280;30184;42.018;23.670;2023-05-23T07:29:15;91235.25;;;19.09;38.70
44481;BME280;30184;42.018;23.670;2023-05-23T07:31:47;91235.31;;;19.15;38.47
44481;BME280;30184;42.018;23.670;2023-05-23T07:34:17;91238.56;;;19.19;39.42
44481;BME280;30184;42.018;23.670;2023-05-23T07:36:58;91227.31;;;19.17;38.64
44481;BME280;30184;42.018;23.670;2023-05-23T07:39:32;91225.09;;;19.21;38.19
44481;BME280;30184;42.018;23.670;2023-05-23T07:42:03;91225.94;;;19.38;39.61
44481;BME280;30184;42.018;23.670;2023-05-23T07:44:32;91233.72;;;19.45;38.55
44481;BME280;30184;42.018;23.670;2023-05-23T07:47:04;91222.53;;;19.54;37.86
44481;BME280;30184;42.018;23.670;2023-05-23T07:49:33;91228.56;;;19.58;37.75
44481;BME280;30184;42.018;23.670;2023-05-23T07:52:04;91222.84;;;19.67;38.59
44481;BME280;30184;42.018;23.670;2023-05-23T07:54:34;91228.44;;;19.90;37.67
44481;BME280;30184;42.018;23.670;2023-05-23T07:57:06;91226.22;;;20.05;37.59
44481;BME280;30184;42.018;23.670;2023-05-23T07:59:37;91224.50;;;20.19;37.75
44481;BME280;30184;42.018;23.670;2023-05-23T08:02:06;91235.25;;;20.22;36.56
44481;BME280;30184;42.018;23.670;2023-05-23T08:04:36;91231.78;;;20.27;36.21
44481;BME280;30184;42.018;23.670;2023-05-23T08:07:07;91224.50;;;20.30;36.93
44481;BME280;30184;42.018;23.670;2023-05-23T08:09:50;91225.25;;;20.30;35.90
44481;BME280;30184;42.018;23.670;2023-05-23T08:12:21;91189.41;;;20.13;36.89
44481;BME280;30184;42.018;23.670;2023-05-23T08:48:25;91224.31;;;20.56;33.27
44481;BME280;30184;42.018;23.670;2023-05-23T08:50:57;91238.56;;;20.48;33.73
44481;BME280;30184;42.018;23.670;2023-05-23T08:53:28;91226.81;;;20.70;33.41
44481;BME280;30184;42.018;23.670;2023-05-23T08:56:05;91212.03;;;20.73;33.98
44481;BME280;30184;42.018;23.670;2023-05-23T08:58:44;91111.28;;;20.28;33.42
44481;BME280;30184;42.018;23.670;2023-05-23T09:01:17;91225.78;;;21.23;31.46
44481;BME280;30184;42.018;23.670;2023-05-23T09:03:51;91231.81;;;21.16;31.05
44481;BME280;30184;42.018;23.670;2023-05-23T09:06:27;91230.06;;;21.02;31.58
44481;BME280;30184;42.018;23.670;2023-05-23T09:08:57;91219.78;;;21.19;31.56
44481;BME280;30184;42.018;23.670;2023-05-23T09:11:26;91214.00;;;21.29;32.39
44481;BME280;30184;42.018;23.670;2023-05-23T09:13:57;91207.94;;;21.47;32.37
44481;BME280;30184;42.018;23.670;2023-05-23T09:16:31;91211.97;;;21.40;31.75
44481;BME280;30184;42.018;23.670;2023-05-23T09:19:11;91201.66;;;21.46;31.54
44481;BME280;30184;42.018;23.670;2023-05-23T09:21:46;91203.09;;;21.64;32.62
44481;BME280;30184;42.018;23.670;2023-05-23T09:24:21;91188.34;;;21.45;31.36
44481;BME280;30184;42.018;23.670;2023-05-23T09:26:50;91185.25;;;21.71;31.06
44481;BME280;30184;42.018;23.670;2023-05-23T09:29:19;91176.78;;;21.52;29.62
44481;BME280;30184;42.018;23.670;2023-05-23T09:31:49;91200.69;;;22.02;29.96
44481;BME280;30184;42.018;23.670;2023-05-23T09:34:20;91203.97;;;22.06;30.19
44481;BME280;30184;42.018;23.670;2023-05-23T09:36:49;91172.34;;;21.95;30.49
44481;BME280;30184;42.018;23.670;2023-05-23T09:39:18;91200.50;;;22.35;30.72
44481;BME280;30184;42.018;23.670;2023-05-23T09:41:48;91125.78;;;22.11;30.67
44481;BME280;30184;42.018;23.670;2023-05-23T09:44:22;91200.34;;;22.57;30.93
44481;BME280;30184;42.018;23.670;2023-05-23T09:46:51;91194.00;;;22.62;31.63
44481;BME280;30184;42.018;23.670;2023-05-23T09:49:22;91174.28;;;22.47;30.96
44481;BME280;30184;42.018;23.670;2023-05-23T09:51:58;91182.19;;;22.67;30.85
44481;BME280;30184;42.018;23.670;2023-05-23T09:54:28;91209.84;;;22.62;30.65
44481;BME280;30184;42.018;23.670;2023-05-23T09:56:58;91196.44;;;22.01;31.37
44481;BME280;30184;42.018;23.670;2023-05-23T09:59:31;91197.00;;;21.82;32.32
44481;BME280;30184;42.018;23.670;2023-05-23T10:02:06;91200.38;;;21.58;33.50
44481;BME280;30184;42.018;23.670;2023-05-23T10:04:38;91207.50;;;21.20;33.50
44481;BME280;30184;42.018;23.670;2023-05-23T10:07:12;91214.78;;;20.90;34.64
44481;BME280;30184;42.018;23.670;2023-05-23T10:09:50;91211.53;;;21.03;35.39
44481;BME280;30184;42.018;23.670;2023-05-23T10:12:45;91197.47;;;21.12;34.43
44481;BME280;30184;42.018;23.670;2023-05-23T10:15:15;91159.09;;;21.08;35.31
44481;BME280;30184;42.018;23.670;2023-05-23T10:18:06;91179.59;;;21.41;33.36
44481;BME280;30184;42.018;23.670;2023-05-23T10:20:42;91097.13;;;21.04;32.77
44481;BME280;30184;42.018;23.670;2023-05-23T10:23:15;91205.16;;;21.52;31.73
44481;BME280;30184;42.018;23.670;2023-05-23T10:25:46;91155.78;;;21.90;32.49
44481;BME280;30184;42.018;23.670;2023-05-23T10:28:18;91172.19;;;22.23;32.02
44481;BME280;30184;42.018;23.670;2023-05-23T10:30:48;91162.22;;;22.45;33.01
44481;BME280;30184;42.018;23.670;2023-05-23T10:33:18;91162.97;;;22.45;29.57
44481;BME280;30184;42.018;23.670;2023-05-23T10:35:56;91153.91;;;22.50;30.27
44481;BME280;30184;42.018;23.670;2023-05-23T10:38:34;91154.28;;;22.65;30.07
44481;BME280;30184;42.018;23.670;2023-05-23T10:41:09;91146.31;;;22.56;29.83
44481;BME280;30184;42.018;23.670;2023-05-23T10:43:44;91144.16;;;22.74;29.07
44481;BME280;30184;42.018;23.670;2023-05-23T10:46:19;91141.91;;;22.72;28.77
44481;BME280;30184;42.018;23.670;2023-05-23T10:48:54;91045.47;;;22.03;28.33
44481;BME280;30184;42.018;23.670;2023-05-23T10:51:37;91144.16;;;22.74;29.17
44481;BME280;30184;42.018;23.670;2023-05-23T10:54:10;91109.44;;;22.13;29.51
44481;BME280;30184;42.018;23.670;2023-05-23T10:56:39;91139.13;;;22.07;29.91
44481;BME280;30184;42.018;23.670;2023-05-23T10:59:18;91155.47;;;22.05;30.61
44481;BME280;30184;42.018;23.670;2023-05-23T11:01:50;91132.50;;;22.21;30.87
44481;BME280;30184;42.018;23.670;2023-05-23T11:04:24;91105.63;;;22.21;28.80
44481;BME280;30184;42.018;23.670;2023-05-23T11:06:56;91123.78;;;22.77;29.17
44481;BME280;30184;42.018;23.670;2023-05-23T11:09:26;91125.13;;;22.94;29.45
44481;BME280;30184;42.018;23.670;2023-05-23T11:11:59;91124.63;;;22.96;29.04
44481;BME280;30184;42.018;23.670;2023-05-23T11:14:34;91159.31;;;22.97;27.85
44481;BME280;30184;42.018;23.670;2023-05-23T11:17:31;91173.44;;;22.93;28.43
44481;BME280;30184;42.018;23.670;2023-05-23T11:20:03;91099.56;;;22.53;28.52
44481;BME280;30184;42.018;23.670;2023-05-23T11:22:38;91140.38;;;22.71;31.71
44481;BME280;30184;42.018;23.670;2023-05-23T11:25:10;91149.44;;;22.42;32.80
44481;BME280;30184;42.018;23.670;2023-05-23T11:27:44;91152.00;;;22.69;31.97
44481;BME280;30184;42.018;23.670;2023-05-23T11:30:16;91161.69;;;22.52;31.65
44481;BME280;30184;42.018;23.670;2023-05-23T11:32:49;91097.22;;;22.03;32.18
44481;BME280;30184;42.018;23.670;2023-05-23T11:35:20;91162.91;;;22.56;33.65
44481;BME280;30184;42.018;23.670;2023-05-23T11:37:51;91173.47;;;22.52;34.08
44481;BME280;30184;42.018;23.670;2023-05-23T11:40:28;91161.59;;;22.33;35.64
44481;BME280;30184;42.018;23.670;2023-05-23T11:43:02;91070.66;;;21.47;37.39
44481;BME280;30184;42.018;23.670;2023-05-23T11:45:32;91182.97;;;22.27;38.24
44481;BME280;30184;42.018;23.670;2023-05-23T11:48:06;91212.31;;;21.83;39.36
44481;BME280;30184;42.018;23.670;2023-05-23T11:50:46;91203.81;;;21.76;39.31
44481;BME280;30184;42.018;23.670;2023-05-23T11:53:19;91208.34;;;21.73;39.38
44481;BME280;30184;42.018;23.670;2023-05-23T11:55:49;91205.06;;;21.75;39.09
44481;BME280;30184;42.018;23.670;2023-05-23T11:58:20;90944.53;;;20.10;39.08
44481;BME280;30184;42.018;23.670;2023-05-23T12:00:50;91186.97;;;21.79;39.64
44481;BME280;30184;42.018;23.670;2023-05-23T12:03:21;91199.78;;;21.77;39.96
44481;BME280;30184;42.018;23.670;2023-05-23T12:05:50;91178.22;;;21.70;39.51
44481;BME280;30184;42.018;23.670;2023-05-23T12:08:21;91177.91;;;21.84;39.15
44481;BME280;30184;42.018;23.670;2023-05-23T12:10:52;91172.19;;;21.71;38.63
44481;BME280;30184;42.018;23.670;2023-05-23T12:13:23;91154.44;;;21.55;38.11
44481;BME280;30184;42.018;23.670;2023-05-23T12:15:54;91145.41;;;21.55;38.10
44481;BME280;30184;42.018;23.670;2023-05-23T12:18:27;91172.78;;;21.47;36.68
44481;BME280;30184;42.018;23.670;2023-05-23T12:20:58;91181.09;;;21.36;37.12
44481;BME280;30184;42.018;23.670;2023-05-23T12:23:29;91166.13;;;20.98;36.87
44481;BME280;30184;42.018;23.670;2023-05-23T12:26:02;91182.16;;;21.05;37.43
44481;BME280;30184;42.018;23.670;2023-05-23T12:28:36;91084.75;;;20.36;38.02
44481;BME280;30184;42.018;23.670;2023-05-23T12:31:10;91176.63;;;21.05;37.70
44481;BME280;30184;42.018;23.670;2023-05-23T12:33:40;91179.16;;;20.98;37.77
44481;BME280;30184;42.018;23.670;2023-05-23T12:36:10;91174.44;;;20.81;37.65
44481;BME280;30184;42.018;23.670;2023-05-23T12:38:42;91183.47;;;20.65;38.27
44481;BME280;30184;42.018;23.670;2023-05-23T12:41:15;91166.94;;;20.37;39.40
44481;BME280;30184;42.018;23.670;2023-05-23T12:43:50;91182.47;;;20.46;39.07
44481;BME280;30184;42.018;23.670;2023-05-23T12:46:21;91080.72;;;19.87;39.90
44481;BME280;30184;42.018;23.670;2023-05-23T12:48:51;91171.19;;;20.72;39.19
44481;BME280;30184;42.018;23.670;2023-05-23T12:51:20;91097.53;;;20.44;39.33
44481;BME280;30184;42.018;23.670;2023-05-23T12:53:52;91186.16;;;21.10;39.25
44481;BME280;30184;42.018;23.670;2023-05-23T12:56:22;90859.03;;;19.13;38.63
44481;BME280;30184;42.018;23.670;2023-05-23T12:58:51;91164.53;;;21.42;39.39
44481;BME280;30184;42.018;23.670;2023-05-23T13:01:21;91067.31;;;20.97;39.03
44481;BME280;30184;42.018;23.670;2023-05-23T13:03:51;91149.22;;;21.46;39.72
44481;BME280;30184;42.018;23.670;2023-05-23T13:06:20;91154.22;;;21.42;39.07
44481;BME280;30184;42.018;23.670;2023-05-23T13:08:51;91155.72;;;21.43;39.46
44481;BME280;30184;42.018;23.670;2023-05-23T13:11:21;91159.94;;;21.61;40.16
44481;BME280;30184;42.018;23.670;2023-05-23T13:13:50;91152.66;;;21.64;39.35
44481;BME280;30184;42.018;23.670;2023-05-23T13:16:19;91146.88;;;21.67;39.64
44481;BME280;30184;42.018;23.670;2023-05-23T13:18:48;91155.56;;;21.30;39.84
44481;BME280;30184;42.018;23.670;2023-05-23T13:21:18;91138.41;;;21.43;39.95
44481;BME280;30184;42.018;23.670;2023-05-23T13:23:47;91143.91;;;21.54;39.09
44481;BME280;30184;42.018;23.670;2023-05-23T13:26:18;91150.97;;;21.44;39.33
44481;BME280;30184;42.018;23.670;2023-05-23T13:28:47;91146.19;;;21.44;38.87
44481;BME280;30184;42.018;23.670;2023-05-23T13:31:19;91148.97;;;21.44;35.31
44481;BME280;30184;42.018;23.670;2023-05-23T13:33:48;91147.00;;;21.34;34.56
44481;BME280;30184;42.018;23.670;2023-05-23T13:36:17;91152.75;;;21.36;33.92
44481;BME280;30184;42.018;23.670;2023-05-23T13:38:46;91149.47;;;21.43;34.00
44481;BME280;30184;42.018;23.670;2023-05-23T13:41:17;91160.00;;;21.50;33.32
44481;BME280;30184;42.018;23.670;2023-05-23T13:43:47;91157.66;;;21.65;34.09
44481;BME280;30184;42.018;23.670;2023-05-23T13:46:16;91154.78;;;21.87;34.46
44481;BME280;30184;42.018;23.670;2023-05-23T13:48:45;91144.88;;;21.62;33.78